createdAt,value
2017-07-02T15:05:23.972Z,57.19
2017-07-02T15:06:34.221Z,57.48
2017-07-02T15:07:44.157Z,57.19
2017-07-02T15:08:54.105Z,57.29
2017-07-02T15:10:04.050Z,56.99
2017-07-02T15:11:14.303Z,57.19
2017-07-02T15:12:24.238Z,57.38
2017-07-02T15:13:34.526Z,56.9
2017-07-02T15:14:44.764Z,57.09
2017-07-02T15:15:55.019Z,57.29
2017-07-02T15:17:05.281Z,57.38
2017-07-02T15:18:15.551Z,57.09
2017-07-02T15:19:25.496Z,57.29
2017-07-02T15:20:35.756Z,57.29
2017-07-02T15:21:46.027Z,57.09
2017-07-02T15:22:55.961Z,57.19
2017-07-02T15:24:05.582Z,57.29
2017-07-02T15:25:15.213Z,57.29
2017-07-02T15:26:25.466Z,57.09
2017-07-02T15:27:35.421Z,57.19
2017-07-02T15:28:45.074Z,57.09
2017-07-02T15:29:54.382Z,56.99
2017-07-02T15:31:04.636Z,57.09
2017-07-02T15:32:14.901Z,56.9
2017-07-02T15:33:25.152Z,57.09
2017-07-02T15:34:35.092Z,57.38
2017-07-02T15:35:45.022Z,57.87
2017-07-02T15:36:55.266Z,57.48
2017-07-02T15:38:04.891Z,57.57
2017-07-02T15:39:14.842Z,57.57
2017-07-02T15:40:25.091Z,57.57
2017-07-02T15:41:35.332Z,57.87
2017-07-02T15:42:44.950Z,57.67
2017-07-02T15:43:54.943Z,57.67
2017-07-02T15:45:04.894Z,57.96
2017-07-02T15:46:14.509Z,57.48
2017-07-02T15:47:24.450Z,57.57
2017-07-02T15:48:34.703Z,57.87
2017-07-02T15:49:44.653Z,57.77
2017-07-02T15:50:54.590Z,57.57
2017-07-02T15:52:03.901Z,57.38
2017-07-02T15:53:13.517Z,57.57
2017-07-02T15:54:23.768Z,57.77
2017-07-02T15:55:33.716Z,57.67
2017-07-02T15:56:43.645Z,57.67
2017-07-02T15:57:53.578Z,57.77
2017-07-02T15:59:03.848Z,57.67
2017-07-02T16:00:14.095Z,57.96
2017-07-02T16:01:24.032Z,57.67
2017-07-02T16:02:34.008Z,57.48
2017-07-02T16:03:44.272Z,57.87
2017-07-02T16:04:54.527Z,57.67
2017-07-02T16:06:04.458Z,58.25
2017-07-02T16:07:14.710Z,57.57
2017-07-02T16:08:24.645Z,57.57
2017-07-02T16:09:34.896Z,57.67
2017-07-02T16:10:44.844Z,57.87
2017-07-02T16:11:54.474Z,58.25
2017-07-02T16:13:04.721Z,58.15
2017-07-02T16:14:14.982Z,58.15
2017-07-02T16:15:25.237Z,57.77
2017-07-02T16:16:34.544Z,57.87
2017-07-02T16:17:44.480Z,57.96
2017-07-02T16:18:54.746Z,58.25
2017-07-02T16:20:04.685Z,57.96
2017-07-02T16:21:14.627Z,57.77
2017-07-02T16:22:24.261Z,58.06
2017-07-02T16:23:34.514Z,58.35
2017-07-02T16:24:44.768Z,58.64
2017-07-02T16:25:54.715Z,58.73
2017-07-02T16:27:04.661Z,58.83
2017-07-02T16:28:14.903Z,58.64
2017-07-02T16:29:24.874Z,58.93
2017-07-02T16:30:35.123Z,59.22
2017-07-02T16:31:45.063Z,58.83
2017-07-02T16:32:55.317Z,58.64
2017-07-02T16:34:05.554Z,58.15
2017-07-02T16:35:15.191Z,58.12
2017-07-02T16:36:25.435Z,58.51
2017-07-02T16:37:35.685Z,58.97
2017-07-02T16:38:45.932Z,58.87
2017-07-02T16:39:55.560Z,59.93
2017-07-02T16:41:05.496Z,59.9
2017-07-02T16:42:15.436Z,60
2017-07-02T16:43:25.384Z,59.71
2017-07-02T16:44:35.648Z,59.71
2017-07-02T16:45:45.889Z,59.61
2017-07-02T16:46:55.815Z,59.8
2017-07-02T16:48:06.075Z,59.52
2017-07-02T16:49:16.054Z,59.42
2017-07-02T16:50:26.306Z,58.75
2017-07-02T16:51:35.933Z,58.84
2017-07-02T16:52:46.184Z,58.84
2017-07-02T16:53:56.438Z,59.23
2017-07-02T16:55:06.360Z,59.71
2017-07-02T16:56:16.298Z,58.45
2017-07-02T16:57:26.292Z,57.68
2017-07-02T16:58:36.537Z,57.78
2017-07-02T16:59:46.841Z,57.87
2017-07-02T17:00:56.804Z,57.78
2017-07-02T17:02:06.478Z,57.56
2017-07-02T17:03:15.786Z,57.78
2017-07-02T17:04:26.048Z,57.75
2017-07-02T17:05:35.976Z,56.98
2017-07-02T17:06:46.226Z,56.79
2017-07-02T17:07:56.471Z,57.46
2017-07-02T17:09:06.733Z,57.07
2017-07-02T17:10:16.675Z,57.07
2017-07-02T17:11:26.603Z,57.17
2017-07-02T17:12:36.235Z,57.07
2017-07-02T17:13:46.496Z,57.07
2017-07-02T17:14:56.438Z,56.98
2017-07-02T17:16:06.379Z,56.98
2017-07-02T17:17:16.318Z,57.17
2017-07-02T17:18:26.586Z,57.07
2017-07-02T17:19:36.826Z,56.79
2017-07-02T17:20:46.764Z,57.27
2017-07-02T17:21:57.015Z,57.07
2017-07-02T17:23:07.267Z,57.46
2017-07-02T17:24:16.582Z,57.17
2017-07-02T17:25:26.514Z,56.98
2017-07-02T17:26:36.765Z,57.07
2017-07-02T17:27:47.009Z,57.17
2017-07-02T17:28:56.943Z,56.49
2017-07-02T17:30:07.192Z,57.07
2017-07-02T17:31:17.433Z,56.98
2017-07-02T17:32:27.416Z,57.07
2017-07-02T17:33:37.361Z,56.98
2017-07-02T17:34:47.617Z,56.79
2017-07-02T17:35:57.872Z,56.79
2017-07-02T17:37:08.131Z,56.11
2017-07-02T17:38:18.077Z,56.59
2017-07-02T17:39:28.007Z,56.01
2017-07-02T17:40:38.249Z,56.4
2017-07-02T17:41:48.494Z,56.57
2017-07-02T17:42:58.753Z,56.21
2017-07-02T17:44:08.996Z,56.69
2017-07-02T17:45:19.251Z,56.47
2017-07-02T17:46:29.185Z,56.3
2017-07-02T17:47:39.124Z,56.4
2017-07-02T17:48:49.380Z,56.4
2017-07-02T17:49:59.640Z,56.4
2017-07-02T17:51:09.256Z,56.01
2017-07-02T17:52:19.182Z,56.01
2017-07-02T17:53:29.429Z,56.4
2017-07-02T17:54:39.400Z,56.47
2017-07-02T17:55:49.340Z,56.76
2017-07-02T17:56:59.288Z,56.49
2017-07-02T17:58:08.914Z,56.59
2017-07-02T17:59:18.855Z,56.47
2017-07-02T18:00:28.790Z,56.49
2017-07-02T18:01:38.720Z,56.11
2017-07-02T18:02:48.984Z,56.21
2017-07-02T18:03:58.931Z,56.01
2017-07-02T18:05:08.895Z,56.59
2017-07-02T18:06:18.513Z,56.11
2017-07-02T18:07:28.445Z,56.49
2017-07-02T18:08:38.373Z,56.3
2017-07-02T18:09:48.640Z,56.21
2017-07-02T18:10:58.581Z,56.01
2017-07-02T18:12:08.509Z,56.49
2017-07-02T18:13:18.769Z,56.11
2017-07-02T18:14:29.062Z,56.49
2017-07-02T18:15:39.319Z,56.49
2017-07-02T18:16:49.264Z,56.3
2017-07-02T18:17:59.513Z,56.69
2017-07-02T18:19:09.450Z,56.59
2017-07-02T18:20:19.699Z,56.3
2017-07-02T18:21:29.636Z,56.98
2017-07-02T18:22:39.882Z,56.85
2017-07-02T18:23:50.138Z,57.14
2017-07-02T18:25:00.397Z,57.14
2017-07-02T18:26:10.646Z,57.14
2017-07-02T18:27:20.629Z,57.72
2017-07-02T18:28:30.567Z,57.72
2017-07-02T18:29:40.190Z,57.62
2017-07-02T18:30:49.808Z,57.43
2017-07-02T18:32:00.056Z,57.43
2017-07-02T18:33:10.303Z,57.53
2017-07-02T18:34:20.560Z,57.72
2017-07-02T18:35:30.187Z,57.53
2017-07-02T18:36:39.823Z,57.34
2017-07-02T18:37:50.073Z,57.72
2017-07-02T18:39:00.015Z,57.72
2017-07-02T18:40:09.966Z,57.62
2017-07-02T18:41:19.897Z,57.53
2017-07-02T18:42:29.836Z,57.43
2017-07-02T18:43:40.075Z,57.62
2017-07-02T18:44:50.012Z,57.43
2017-07-02T18:45:59.643Z,58.01
2017-07-02T18:47:09.900Z,57.43
2017-07-02T18:48:19.838Z,57.53
2017-07-02T18:49:29.825Z,57.53
2017-07-02T18:50:39.774Z,57.62
2017-07-02T18:51:49.713Z,57.53
2017-07-02T18:52:59.969Z,57.72
2017-07-02T18:54:09.909Z,57.43
2017-07-02T18:55:20.178Z,57.72
2017-07-02T18:56:30.124Z,57.82
2017-07-02T18:57:40.372Z,57.82
2017-07-02T18:58:50.629Z,57.98
2017-07-02T19:00:00.564Z,58.49
2017-07-02T19:01:10.497Z,57.62
2017-07-02T19:02:20.750Z,57.62
2017-07-02T19:03:31.000Z,57.72
2017-07-02T19:04:41.299Z,57.72
2017-07-02T19:05:51.560Z,57.82
2017-07-02T19:07:01.503Z,57.62
2017-07-02T19:08:11.764Z,57.82
2017-07-02T19:09:21.390Z,58.2
2017-07-02T19:10:31.327Z,58.17
2017-07-02T19:11:41.568Z,57.98
2017-07-02T19:12:51.828Z,57.98
2017-07-02T19:14:02.087Z,58.01
2017-07-02T19:15:12.336Z,57.82
2017-07-02T19:16:22.583Z,58.11
2017-07-02T19:17:32.840Z,58.75
2017-07-02T19:18:43.080Z,59.07
2017-07-02T19:19:53.013Z,58.37
2017-07-02T19:21:03.264Z,58.37
2017-07-02T19:22:13.208Z,58.47
2017-07-02T19:23:23.463Z,58.47
2017-07-02T19:24:33.723Z,58.95
2017-07-02T19:25:43.973Z,58.85
2017-07-02T19:26:53.894Z,59.33
2017-07-02T19:28:04.130Z,58.65
2017-07-02T19:29:14.388Z,58.17
2017-07-02T19:30:24.656Z,58.47
2017-07-02T19:31:34.914Z,58.65
2017-07-02T19:32:44.862Z,58.27
2017-07-02T19:33:55.121Z,58.27
2017-07-02T19:35:05.059Z,58.47
2017-07-02T19:36:15.004Z,58.37
2017-07-02T19:37:25.251Z,58.2
2017-07-02T19:38:35.499Z,58.17
2017-07-02T19:39:45.428Z,58.65
2017-07-02T19:40:55.369Z,59.04
2017-07-02T19:42:05.302Z,58.95
2017-07-02T19:43:15.248Z,58.95
2017-07-02T19:44:25.497Z,59.14
2017-07-02T19:45:35.428Z,58.95
2017-07-02T19:46:45.690Z,58.75
2017-07-02T19:47:55.938Z,58.95
2017-07-02T19:49:05.878Z,58.95
2017-07-02T19:50:16.136Z,58.95
2017-07-02T19:51:26.074Z,58.95
2017-07-02T19:52:36.016Z,58.65
2017-07-02T19:53:46.266Z,58.95
2017-07-02T19:54:56.520Z,58.56
2017-07-02T19:56:06.144Z,59.04
2017-07-02T19:57:16.397Z,59.04
2017-07-02T19:58:26.338Z,58.95
2017-07-02T19:59:36.591Z,59.33
2017-07-02T20:00:46.535Z,58.85
2017-07-02T20:01:56.529Z,58.95
2017-07-02T20:03:06.779Z,59.23
2017-07-02T20:04:16.732Z,59.33
2017-07-02T20:05:26.989Z,58.85
2017-07-02T20:06:36.605Z,59.33
2017-07-02T20:07:46.230Z,59.11
2017-07-02T20:08:56.474Z,58.75
2017-07-02T20:10:06.413Z,58.92
2017-07-02T20:11:16.655Z,59.3
2017-07-02T20:12:26.909Z,58.72
2017-07-02T20:13:37.169Z,59.01
2017-07-02T20:14:47.464Z,58.92
2017-07-02T20:15:57.407Z,58.92
2017-07-02T20:17:07.342Z,59.11
2017-07-02T20:18:17.588Z,58.53
2017-07-02T20:19:27.534Z,58.72
2017-07-02T20:20:37.785Z,58.34
2017-07-02T20:21:48.042Z,58.15
2017-07-02T20:22:58.280Z,58.34
2017-07-02T20:24:08.213Z,57.86
2017-07-02T20:25:18.468Z,58.17
2017-07-02T20:26:28.403Z,57.69
2017-07-02T20:27:38.339Z,57.69
2017-07-02T20:28:48.305Z,57.69
2017-07-02T20:29:57.942Z,58.15
2017-07-02T20:31:08.181Z,58.15
2017-07-02T20:32:18.430Z,58.44
2017-07-02T20:33:28.362Z,58.15
2017-07-02T20:34:38.298Z,58.44
2017-07-02T20:35:48.575Z,58.82
2017-07-02T20:36:58.919Z,58.34
2017-07-02T20:38:08.552Z,57.76
2017-07-02T20:39:18.792Z,57.57
2017-07-02T20:40:28.724Z,57.76
2017-07-02T20:41:38.662Z,57.67
2017-07-02T20:42:48.922Z,57.37
2017-07-02T20:43:59.180Z,57.47
2017-07-02T20:45:09.444Z,57.67
2017-07-02T20:46:19.378Z,57.6
2017-07-02T20:47:29.333Z,57.6
2017-07-02T20:48:39.267Z,57.76
2017-07-02T20:49:49.508Z,57.98
2017-07-02T20:50:59.762Z,57.28
2017-07-02T20:52:10.008Z,57.6
2017-07-02T20:53:20.282Z,57.57
2017-07-02T20:54:29.954Z,57.67
2017-07-02T20:55:39.890Z,57.67
2017-07-02T20:56:49.840Z,57.57
2017-07-02T20:57:59.777Z,57.57
2017-07-02T20:59:10.034Z,57.57
2017-07-02T21:00:20.272Z,58.15
2017-07-02T21:01:30.192Z,57.67
2017-07-02T21:02:39.812Z,57.57
2017-07-02T21:03:49.808Z,57.37
2017-07-02T21:05:00.056Z,57.28
2017-07-02T21:06:09.988Z,57.28
2017-07-02T21:07:19.926Z,57.37
2017-07-02T21:08:29.870Z,57.57
2017-07-02T21:09:39.801Z,57.47
2017-07-02T21:10:49.755Z,57.47
2017-07-02T21:11:59.686Z,57.18
2017-07-02T21:13:09.622Z,57.67
2017-07-02T21:14:19.875Z,57.57
2017-07-02T21:15:29.834Z,56.9
2017-07-02T21:16:39.767Z,57.18
2017-07-02T21:17:50.017Z,56.9
2017-07-02T21:19:00.335Z,57.28
2017-07-02T21:20:10.264Z,57.09
2017-07-02T21:21:20.500Z,57.09
2017-07-02T21:22:30.739Z,56.7
2017-07-02T21:23:40.984Z,56.41
2017-07-02T21:24:51.229Z,56.51
2017-07-02T21:26:01.473Z,56.22
2017-07-02T21:27:11.723Z,55.83
2017-07-02T21:28:21.662Z,55.55
2017-07-02T21:29:31.607Z,55.55
2017-07-02T21:30:41.231Z,55.55
2017-07-02T21:31:51.497Z,55.83
2017-07-02T21:33:01.744Z,55.07
2017-07-02T21:34:11.675Z,55.65
2017-07-02T21:35:21.609Z,54.87
2017-07-02T21:36:31.223Z,54.58
2017-07-02T21:37:41.167Z,54.39
2017-07-02T21:38:51.421Z,54.68
2017-07-02T21:40:01.365Z,54.58
2017-07-02T21:41:11.624Z,54.87
2017-07-02T21:42:21.893Z,54.68
2017-07-02T21:43:32.139Z,54.49
2017-07-02T21:44:42.072Z,54.39
2017-07-02T21:45:52.041Z,54.65
2017-07-02T21:47:02.310Z,54.85
2017-07-02T21:48:12.270Z,54.65
2017-07-02T21:49:22.523Z,54.75
2017-07-02T21:50:32.766Z,54.65
2017-07-02T21:51:42.704Z,54.65
2017-07-02T21:52:52.643Z,54.65
2017-07-02T21:54:02.574Z,54.65
2017-07-02T21:55:12.903Z,54.46
2017-07-02T21:56:22.905Z,54.65
2017-07-02T21:57:32.846Z,54.56
2017-07-02T21:58:42.781Z,54.65
2017-07-02T21:59:52.410Z,53.98
2017-07-02T22:01:02.662Z,53.88
2017-07-02T22:02:12.929Z,54.17
2017-07-02T22:03:23.167Z,53.59
2017-07-02T22:04:33.431Z,53.4
2017-07-02T22:05:43.680Z,53.69
2017-07-02T22:06:53.621Z,53.4
2017-07-02T22:08:03.554Z,53.21
2017-07-02T22:09:13.809Z,53.4
2017-07-02T22:10:24.071Z,53.21
2017-07-02T22:11:34.326Z,52.73
2017-07-02T22:12:44.583Z,52.83
2017-07-02T22:13:54.522Z,51.86
2017-07-02T22:15:04.770Z,52.54
2017-07-02T22:16:15.016Z,52.25
2017-07-02T22:17:25.278Z,52.06
2017-07-02T22:18:35.206Z,52.25
2017-07-02T22:19:45.154Z,52.25
2017-07-02T22:20:55.407Z,51.96
2017-07-02T22:22:05.672Z,51.86
2017-07-02T22:23:15.618Z,52.06
2017-07-02T22:24:25.568Z,51.96
2017-07-02T22:25:35.529Z,52.25
2017-07-02T22:26:45.767Z,52.06
2017-07-02T22:27:55.707Z,52.15
2017-07-02T22:29:05.961Z,52.25
2017-07-02T22:30:16.206Z,51.67
2017-07-02T22:31:26.143Z,51.84
2017-07-02T22:32:36.395Z,51.76
2017-07-02T22:33:46.629Z,51.86
2017-07-02T22:34:56.557Z,52.06
2017-07-02T22:36:05.866Z,51.74
2017-07-02T22:37:16.110Z,51.57
2017-07-02T22:38:26.355Z,51.29
2017-07-02T22:39:35.983Z,51.67
2017-07-02T22:40:46.237Z,51.48
2017-07-02T22:41:56.175Z,51.29
2017-07-02T22:43:05.799Z,51.38
2017-07-02T22:44:15.740Z,51.19
2017-07-02T22:45:25.676Z,51.19
2017-07-02T22:46:35.641Z,51.26
2017-07-02T22:47:45.890Z,51.07
2017-07-02T22:48:55.821Z,51.26
2017-07-02T22:50:05.758Z,50.97
2017-07-02T22:51:15.691Z,51.35
2017-07-02T22:52:25.956Z,51.35
2017-07-02T22:53:36.230Z,51.35
2017-07-02T22:54:46.471Z,51.35
2017-07-02T22:55:56.405Z,51.45
2017-07-02T22:57:06.343Z,50.97
2017-07-02T22:58:16.276Z,51.45
2017-07-02T22:59:25.897Z,50.97
2017-07-02T23:00:36.143Z,51.35
2017-07-02T23:01:46.393Z,51.07
2017-07-02T23:02:56.318Z,50.97
2017-07-02T23:04:06.557Z,51.74
2017-07-02T23:05:16.809Z,51.55
2017-07-02T23:06:26.426Z,51.07
2017-07-02T23:07:36.089Z,51.07
2017-07-02T23:08:46.046Z,51.26
2017-07-02T23:09:56.295Z,50.68
2017-07-02T23:11:06.543Z,51.35
2017-07-02T23:12:16.793Z,51.17
2017-07-02T23:13:27.043Z,51.64
2017-07-02T23:14:37.295Z,51.26
2017-07-02T23:15:47.546Z,51.55
2017-07-02T23:16:57.812Z,51.17
2017-07-02T23:18:07.128Z,51.17
2017-07-02T23:19:17.065Z,51.07
2017-07-02T23:20:26.996Z,51.14
2017-07-02T23:21:37.244Z,51.26
2017-07-02T23:22:47.531Z,50.85
2017-07-02T23:23:57.474Z,50.97
2017-07-02T23:25:07.727Z,50.87
2017-07-02T23:26:17.980Z,51.35
2017-07-02T23:27:28.235Z,51.17
2017-07-02T23:28:38.165Z,50.56
2017-07-02T23:29:48.103Z,50.85
2017-07-02T23:30:58.354Z,50.95
2017-07-02T23:32:08.288Z,51.04
2017-07-02T23:33:18.548Z,50.85
2017-07-02T23:34:28.815Z,51.23
2017-07-02T23:35:38.443Z,51.04
2017-07-02T23:36:48.691Z,51.14
2017-07-02T23:37:58.609Z,51.04
2017-07-02T23:39:08.531Z,50.85
2017-07-02T23:40:18.461Z,50.66
2017-07-02T23:41:28.402Z,50.56
2017-07-02T23:42:38.640Z,50.37
2017-07-02T23:43:48.268Z,50.37
2017-07-02T23:44:58.515Z,50.95
2017-07-02T23:46:08.798Z,50.37
2017-07-02T23:47:19.055Z,50.95
2017-07-02T23:48:28.682Z,51.04
2017-07-02T23:49:38.983Z,51.04
2017-07-02T23:50:49.237Z,50.85
2017-07-02T23:51:59.162Z,50.76
2017-07-02T23:53:09.419Z,50.76
2017-07-02T23:54:19.350Z,50.08
2017-07-02T23:55:29.289Z,50.37
2017-07-02T23:56:39.220Z,50.56
2017-07-02T23:57:49.165Z,50.76
2017-07-02T23:58:59.420Z,50.46
